»·PEaware :: N2PD KSNA-KMYF

N2PD :: KSNA-KMYF

FLIGHT INFORMATION

Flight Status: Arrived
Operator: Privately registered:
United States
More flights under this callsign
Pilot: Daniel P. (20187)
Aircraft: SOCATA TBM-900
(TBM9)
More flights by this aircraft type
Origin: KSNA John Wayne-Orange Co
United States
Destination: KMYF Montgomery
United States
More flights between these airports :: More routes between these airports
Route: +V25 PACIF V208 LAX118R CARDI MZB320R MZB
File this flight plan on PilotEdge
Remarks: CSTP19
Altitude:
(Current/Filed)
90ft
Speed:
(Current/Filed)
200kts
Departed: 02-Dec-18 08:39 AM
Arrived: 02-Dec-18 09:14 AM
Distance/Time
Traveled:
63nm/0:35
Distance/Time
To Go:
Arrived

Flight Plot

Page will automatically refresh every two minutes.


Map Options




Map Legend


Flown Route
Filed Route
Departure Airport
Arrival Airport
Navaid (VOR, NDB)
Fix

Horizontal Profiles

Position Reports

Time Latitude Longitude Heading Altitude Ground
Speed
02-Dec-18 08:22 33.675122 -117.871445 209 59ft 0kts
02-Dec-18 08:23 33.675122 -117.871445 209 59ft 0kts
02-Dec-18 08:24 33.675122 -117.871445 209 59ft 0kts
02-Dec-18 08:25 33.675122 -117.871445 209 59ft 0kts
02-Dec-18 08:26 33.675122 -117.871445 209 59ft 0kts
02-Dec-18 08:27 33.675122 -117.871445 209 59ft 0kts
02-Dec-18 08:28 33.675122 -117.871445 209 59ft 0kts
02-Dec-18 08:29 33.675122 -117.871445 209 59ft 0kts
02-Dec-18 08:30 33.675122 -117.871445 209 59ft 0kts
02-Dec-18 08:31 33.675122 -117.871445 209 59ft 0kts
02-Dec-18 08:32 33.675122 -117.871445 209 59ft 0kts
02-Dec-18 08:33 33.675122 -117.871445 209 59ft 0kts
02-Dec-18 08:34 33.675122 -117.871445 209 59ft 0kts
02-Dec-18 08:35 33.675121 -117.871445 209 59ft 0kts
02-Dec-18 08:36 33.675121 -117.871445 209 59ft 0kts
02-Dec-18 08:37 33.675100 -117.870694 25 59ft 9kts
02-Dec-18 08:38 33.678278 -117.868677 26 59ft 13kts
02-Dec-18 08:39 33.681288 -117.866768 81 59ft 10kts
02-Dec-18 08:40 33.681211 -117.866414 117 59ft 0kts
02-Dec-18 08:41 33.681171 -117.866322 117 59ft 5kts
02-Dec-18 08:42 33.671867 -117.871240 209 196ft 124kts
02-Dec-18 08:43 33.631931 -117.886471 186 1918ft 172kts
02-Dec-18 08:44 33.583525 -117.894260 186 3711ft 184kts
02-Dec-18 08:45 33.532593 -117.902308 186 5481ft 189kts
02-Dec-18 08:46 33.480466 -117.909648 186 7249ft 190kts
02-Dec-18 08:47 33.427320 -117.909535 140 8971ft 203kts
02-Dec-18 08:48 33.381434 -117.854486 133 9016ft 254kts
02-Dec-18 08:49 33.330228 -117.797421 133 9007ft 252kts
02-Dec-18 08:50 33.285361 -117.736252 97 9022ft 238kts
02-Dec-18 08:51 33.272350 -117.657680 93 9013ft 243kts
02-Dec-18 08:52 33.260251 -117.577770 91 9012ft 244kts
02-Dec-18 08:53 33.250410 -117.497627 91 9011ft 244kts
02-Dec-18 08:54 33.228835 -117.422966 152 8993ft 261kts
02-Dec-18 08:55 33.157092 -117.421093 184 8990ft 260kts
02-Dec-18 08:56 33.100637 -117.380703 121 8953ft 256kts
02-Dec-18 08:57 33.060896 -117.312633 121 8946ft 254kts
02-Dec-18 08:58 33.020768 -117.243729 121 8949ft 253kts
02-Dec-18 08:59 32.980846 -117.175075 121 8953ft 253kts
02-Dec-18 09:00 32.940797 -117.106138 121 8958ft 254kts
02-Dec-18 09:01 32.900759 -117.037332 121 8892ft 250kts
02-Dec-18 09:02 32.861988 -116.970610 121 8085ft 244kts
02-Dec-18 09:03 32.825642 -116.907958 121 7237ft 218kts
02-Dec-18 09:04 32.792328 -116.850120 121 6408ft 207kts
02-Dec-18 09:05 32.761326 -116.795910 121 5572ft 188kts
02-Dec-18 09:06 32.731360 -116.749300 160 4942ft 164kts
02-Dec-18 09:07 32.713877 -116.774665 281 5017ft 127kts
02-Dec-18 09:08 32.718363 -116.819458 281 4970ft 137kts
02-Dec-18 09:09 32.723429 -116.867294 281 4972ft 153kts
02-Dec-18 09:10 32.730523 -116.918430 291 4942ft 158kts
02-Dec-18 09:11 32.747732 -116.967254 298 4244ft 158kts
02-Dec-18 09:12 32.765393 -117.011856 298 2919ft 138kts
02-Dec-18 09:13 32.779021 -117.045832 296 1987ft 101kts
02-Dec-18 09:14 32.790779 -117.076534 298 1401ft 101kts
02-Dec-18 09:15 32.802361 -117.105116 297 1005ft 84kts
02-Dec-18 09:16 32.812103 -117.129334 298 516ft 80kts
02-Dec-18 09:17 32.815926 -117.141096 180 416ft 2kts
02-Dec-18 09:18 32.815915 -117.141096 180 416ft 0kts
02-Dec-18 09:19 32.815915 -117.141096 180 416ft 0kts
02-Dec-18 09:20 32.815915 -117.141096 180 416ft 0kts
02-Dec-18 09:21 32.815599 -117.141288 243 416ft 10kts
02-Dec-18 09:22 32.813927 -117.140794 199 416ft 8kts
02-Dec-18 09:23 32.813471 -117.141451 28 414ft 0kts
02-Dec-18 09:24 32.813471 -117.141452 28 414ft 0kts
02-Dec-18 09:25 32.813471 -117.141452 28 414ft 0kts
02-Dec-18 09:26 32.813471 -117.141451 28 414ft 0kts
02-Dec-18 09:27 32.813471 -117.141451 28 414ft 0kts
02-Dec-18 09:28 32.813471 -117.141451 28 414ft 0kts
02-Dec-18 09:29 32.813471 -117.141451 28 414ft 0kts
02-Dec-18 09:30 32.813471 -117.141451 28 414ft 0kts
02-Dec-18 09:31 32.813471 -117.141451 28 414ft 0kts

Navigation Log

Ident Type
Flight plan parsing failed, navigation log unavailable